Time;durP1;ratioP1;P1;durP2;ratioP2;P2;SDS_P1;SDS_P2;PMS_P1;PMS_P2;Temp;Humidity;BMP_temperature;BMP_pressure;BME280_temperature;BME280_humidity;BME280_pressure;Samples;Min_cycle;Max_cycle;Signal;HPM_P1;HPM_P2
2021/08/13 00:01:38;;;;;;;17.58;7.25;;;;;;;23.13;39.29;95517.13;5045179;22;20029;-78
2021/08/13 00:04:04;;;;;;;11.05;6.82;;;;;;;23.12;39.99;95515.56;5036407;28;20103;-79
2021/08/13 00:06:29;;;;;;;9.30;7.30;;;;;;;23.11;40.59;95516.63;5037468;28;20477;-80
2021/08/13 00:08:55;;;;;;;15.57;9.80;;;;;;;23.09;40.82;95512.69;5035766;28;20105;-79
2021/08/13 00:11:20;;;;;;;20.13;11.35;;;;;;;23.06;41.79;95519.38;5037323;28;20103;-79
2021/08/13 00:13:46;;;;;;;13.60;8.70;;;;;;;23.02;41.28;95519.16;5037913;28;20033;-80
2021/08/13 00:16:11;;;;;;;13.85;8.65;;;;;;;23.01;41.16;95522.13;5039184;28;20039;-80
2021/08/13 00:18:36;;;;;;;11.63;8.05;;;;;;;22.95;41.37;95513.47;5038741;28;20029;-78
2021/08/13 00:21:02;;;;;;;17.70;10.73;;;;;;;22.93;41.97;95514.81;5039005;28;20033;-79
2021/08/13 00:23:27;;;;;;;22.05;11.15;;;;;;;22.88;42.70;95506.97;5043047;22;20120;-79
2021/08/13 00:25:53;;;;;;;22.25;11.52;;;;;;;22.88;42.75;95513.06;5036795;28;20046;-79
2021/08/13 00:28:18;;;;;;;16.45;9.30;;;;;;;22.83;42.89;95512.38;5036920;28;20136;-80
2021/08/13 00:30:47;;;;;;;13.90;8.35;;;;;;;22.81;42.74;95511.84;5019776;28;20026;-80
2021/08/13 00:33:12;;;;;;;9.27;5.63;;;;;;;22.78;40.95;95507.91;5002946;28;20515;-79
2021/08/13 00:35:38;;;;;;;8.43;5.20;;;;;;;22.75;40.42;95503.97;5036010;28;20102;-79
2021/08/13 00:38:03;;;;;;;9.15;4.95;;;;;;;22.73;40.17;95500.03;5037475;28;20045;-78
2021/08/13 00:40:29;;;;;;;17.60;6.05;;;;;;;22.71;40.92;95508.28;5017973;28;20045;-79
2021/08/13 00:42:54;;;;;;;12.40;5.80;;;;;;;22.69;40.89;95507.00;5037195;28;20063;-79
2021/08/13 00:45:19;;;;;;;7.30;4.85;;;;;;;22.67;39.98;95507.28;5037295;28;20021;-79
2021/08/13 00:47:46;;;;;;;4.45;4.05;;;;;;;22.64;39.66;95507.88;5024490;22;20088;-79
2021/08/13 00:50:12;;;;;;;4.30;3.90;;;;;;;22.56;39.80;95510.38;5036783;28;20079;-79
2021/08/13 00:52:38;;;;;;;11.77;4.55;;;;;;;22.54;39.51;95515.97;5035496;28;20124;-79
2021/08/13 00:55:05;;;;;;;5.57;4.10;;;;;;;22.50;39.41;95512.34;5019714;28;20048;-79
2021/08/13 00:57:30;;;;;;;5.50;4.25;;;;;;;22.49;39.49;95510.00;5018995;28;20579;-79
2021/08/13 00:59:55;;;;;;;6.38;4.07;;;;;;;22.50;39.41;95517.66;5018807;28;20021;-79
2021/08/13 01:02:21;;;;;;;6.28;4.13;;;;;;;22.49;39.54;95518.72;5036668;28;20029;-79
2021/08/13 01:04:46;;;;;;;6.22;4.30;;;;;;;22.51;39.18;95523.72;5014473;23;20038;-79
2021/08/13 01:07:12;;;;;;;4.95;4.25;;;;;;;22.50;39.21;95517.66;5036754;28;20048;-79
2021/08/13 01:09:37;;;;;;;11.32;4.65;;;;;;;22.49;39.27;95521.38;5036474;28;20029;-79
2021/08/13 01:12:09;;;;;;;8.20;3.38;;;;;;;22.50;39.39;95522.16;5033478;28;20022;-79
2021/08/13 01:15:02;;;;;;;8.38;3.67;;;;;;;22.52;39.36;95526.09;5051265;28;20075;-79
2021/08/13 01:17:30;;;;;;;5.43;3.72;;;;;;;22.50;39.03;95524.81;5050743;28;20061;-79
2021/08/13 01:20:11;;;;;;;7.75;3.97;;;;;;;22.51;39.49;95524.53;5050623;28;20037;-79
2021/08/13 01:22:51;;;;;;;4.70;3.53;;;;;;;22.52;39.44;95515.50;5051545;28;20512;-79
2021/08/13 01:25:19;;;;;;;12.23;3.83;;;;;;;22.53;39.61;95517.06;5035949;28;20575;-79
2021/08/13 01:27:46;;;;;;;6.63;3.67;;;;;;;22.56;39.31;95521.78;5036594;28;20044;-79
2021/08/13 01:30:14;;;;;;;4.00;3.60;;;;;;;22.53;38.88;95527.66;5035601;28;20107;-79
2021/08/13 01:32:40;;;;;;;9.07;3.80;;;;;;;22.55;39.02;95520.22;5051684;28;20044;-79
2021/08/13 01:35:09;;;;;;;9.73;3.88;;;;;;;22.56;39.01;95519.13;5051550;22;20032;-79
2021/08/13 01:37:39;;;;;;;6.78;3.63;;;;;;;22.54;38.80;95512.53;5016122;28;20084;-79
2021/08/13 01:40:06;;;;;;;9.30;3.40;;;;;;;22.53;39.00;95516.28;4981602;28;20324;-79
2021/08/13 01:42:32;;;;;;;7.07;3.75;;;;;;;22.53;38.73;95509.13;5016062;28;20037;-79
2021/08/13 01:44:57;;;;;;;6.63;4.28;;;;;;;22.54;38.95;95515.19;4999245;28;20033;-81
2021/08/13 01:47:29;;;;;;;4.30;3.85;;;;;;;22.57;39.07;95522.56;5023059;22;20127;-79
2021/08/13 01:49:54;;;;;;;6.93;3.72;;;;;;;22.58;39.07;95519.63;5059223;23;20255;-79
2021/08/13 01:52:20;;;;;;;9.48;3.75;;;;;;;22.59;39.42;95521.19;5035310;28;20416;-79
2021/08/13 01:54:46;;;;;;;10.82;4.38;;;;;;;22.61;39.80;95524.34;5034591;28;20083;-79
2021/08/13 01:57:14;;;;;;;8.80;4.05;;;;;;;22.62;38.81;95511.91;5028367;22;20042;-79
2021/08/13 01:59:40;;;;;;;6.65;4.35;;;;;;;22.62;38.49;95512.69;5014959;28;20563;-79
2021/08/13 02:02:05;;;;;;;6.05;3.55;;;;;;;22.58;38.88;95514.31;5002378;28;20089;-80
2021/08/13 02:04:31;;;;;;;4.65;3.90;;;;;;;22.55;38.86;95504.31;4979199;28;20085;-79
2021/08/13 02:06:56;;;;;;;6.18;4.03;;;;;;;22.54;38.46;95502.72;4978942;28;20069;-80
2021/08/13 02:11:54;;;;;;;5.68;3.28;;;;;;;22.51;38.20;95513.13;5042775;22;20091;-79
2021/08/13 02:14:20;;;;;;;11.10;4.10;;;;;;;22.49;38.55;95510.78;5040807;23;20067;-79
2021/08/13 02:16:50;;;;;;;8.77;3.92;;;;;;;22.47;38.55;95518.22;5055620;28;20017;-79
2021/08/13 02:19:39;;;;;;;14.70;4.20;;;;;;;22.45;38.52;95515.06;5037893;28;20032;-80
2021/08/13 02:22:04;;;;;;;4.95;3.65;;;;;;;22.44;38.69;95521.44;5039775;28;20574;-79
2021/08/13 02:24:33;;;;;;;7.03;3.50;;;;;;;22.41;39.13;95520.16;5021579;28;20041;-79
2021/08/13 02:26:59;;;;;;;7.97;4.32;;;;;;;22.41;39.06;95514.84;5055357;28;20404;-79
2021/08/13 02:29:25;;;;;;;9.32;4.10;;;;;;;22.44;38.92;95519.56;5036486;28;20512;-79
2021/08/13 02:31:50;;;;;;;5.50;3.92;;;;;;;22.46;38.83;95516.66;5053733;28;20083;-79
2021/08/13 02:34:16;;;;;;;12.13;4.30;;;;;;;22.47;38.83;95518.22;5054212;22;20037;-79
2021/08/13 02:37:32;;;;;;;9.05;4.15;;;;;;;22.45;39.18;95523.81;5040710;22;20494;-79
2021/08/13 02:40:14;;;;;;;10.80;4.43;;;;;;;22.40;40.26;95528.41;5009176;28;20061;-80
2021/08/13 02:42:48;;;;;;;7.63;4.60;;;;;;;22.39;40.56;95529.47;5034218;28;20049;-79
2021/08/13 02:45:14;;;;;;;24.58;4.63;;;;;;;22.38;41.01;95536.63;5049078;28;20453;-79
2021/08/13 02:47:40;;;;;;;12.38;4.00;;;;;;;22.35;41.31;95541.72;5032208;28;20095;-80
2021/08/13 02:50:07;;;;;;;13.80;4.00;;;;;;;22.29;42.39;95529.63;5053096;28;20068;-78
2021/08/13 02:52:56;;;;;;;14.43;4.18;;;;;;;22.20;42.11;95537.44;5039206;28;20040;-77
2021/08/13 02:55:23;;;;;;;9.80;4.32;;;;;;;22.06;42.09;95534.72;5057459;28;20444;-78
2021/08/13 02:57:54;;;;;;;10.50;4.35;;;;;;;21.90;43.11;95543.13;5058139;28;20032;-77
2021/08/13 03:00:20;;;;;;;11.38;4.70;;;;;;;21.67;44.25;95539.47;5041156;28;20091;-78
2021/08/13 03:02:46;;;;;;;9.32;5.25;;;;;;;21.38;45.47;95540.31;5057682;28;20049;-79
2021/08/13 03:05:39;;;;;;;12.82;5.82;;;;;;;21.15;45.83;95548.97;5056234;28;20034;-78
2021/08/13 03:08:30;;;;;;;10.95;5.85;;;;;;;20.86;46.72;95549.03;4996960;28;20078;-78
2021/08/13 03:10:56;;;;;;;8.43;5.40;;;;;;;20.81;46.18;95551.69;4995171;28;20058;-79
2021/08/13 03:13:22;;;;;;;9.00;5.90;;;;;;;20.80;46.27;95556.19;4978869;28;20089;-84
2021/08/13 03:15:47;;;;;;;8.88;4.93;;;;;;;20.78;46.13;95553.03;4994926;28;20135;-79
2021/08/13 03:18:13;;;;;;;12.25;5.93;;;;;;;20.76;46.40;95557.81;4961174;28;20110;-79
2021/08/13 03:20:44;;;;;;;16.08;6.18;;;;;;;20.79;46.52;95556.47;4993698;28;20042;-79
2021/08/13 03:23:10;;;;;;;9.50;5.88;;;;;;;20.77;46.72;95556.75;4997533;28;20066;-79
2021/08/13 03:25:36;;;;;;;7.55;5.72;;;;;;;20.79;47.19;95559.91;4997690;28;20112;-79
2021/08/13 03:28:05;;;;;;;11.55;5.95;;;;;;;20.81;47.10;95557.75;4981132;28;20030;-79
2021/08/13 03:30:41;;;;;;;10.15;5.30;;;;;;;20.80;47.11;95564.13;4997614;28;20065;-79
2021/08/13 03:33:11;;;;;;;16.75;5.55;;;;;;;20.79;46.98;95559.09;4997821;28;20403;-79
2021/08/13 03:35:37;;;;;;;16.00;5.22;;;;;;;20.79;46.25;95559.09;4996063;28;20026;-79
2021/08/13 03:38:03;;;;;;;10.75;6.20;;;;;;;20.76;46.04;95560.47;4997765;28;20043;-79
2021/08/13 03:40:28;;;;;;;16.70;6.03;;;;;;;20.78;46.55;95563.59;5013503;23;20049;-79
2021/08/13 03:42:53;;;;;;;15.85;6.82;;;;;;;20.80;46.80;95564.13;5038129;28;20489;-79
2021/08/13 03:45:19;;;;;;;36.97;7.03;;;;;;;20.81;47.23;95565.69;5020465;28;20033;-80
2021/08/13 03:47:44;;;;;;;26.20;6.82;;;;;;;20.84;46.97;95559.88;5003881;28;20033;-79
2021/08/13 03:50:10;;;;;;;24.92;5.95;;;;;;;20.86;47.97;95564.88;5036994;28;20037;-79
2021/08/13 03:52:36;;;;;;;23.15;6.38;;;;;;;20.87;48.48;95564.59;5037631;28;20041;-79
2021/08/13 03:55:01;;;;;;;14.63;6.15;;;;;;;20.84;48.45;95565.16;5038035;28;20413;-79
2021/08/13 03:57:26;;;;;;;65.95;7.43;;;;;;;20.87;48.66;95561.97;5038119;28;20497;-79
2021/08/13 03:59:52;;;;;;;40.25;7.53;;;;;;;20.91;48.39;95565.63;5042260;22;20046;-79
2021/08/13 04:02:20;;;;;;;8.20;5.38;;;;;;;20.94;47.61;95565.06;5037351;28;20408;-79
2021/08/13 04:04:47;;;;;;;11.48;4.57;;;;;;;20.95;46.49;95568.47;5038297;28;20034;-79
2021/08/13 04:07:13;;;;;;;7.70;5.10;;;;;;;20.94;46.93;95572.19;5038393;28;20108;-79
2021/08/13 04:09:38;;;;;;;18.92;5.30;;;;;;;20.92;46.10;95572.47;5037177;28;20044;-79
2021/08/13 04:12:04;;;;;;;21.23;5.75;;;;;;;20.86;46.64;95568.31;5037497;28;20120;-79
2021/08/13 04:14:30;;;;;;;21.00;5.72;;;;;;;21.25;45.48;95567.44;5019599;28;20045;-79
2021/08/13 04:16:56;;;;;;;17.50;6.72;;;;;;;22.71;42.08;95565.81;4985740;28;20037;-78
2021/08/13 04:19:21;;;;;;;15.20;5.97;;;;;;;24.18;38.84;95564.97;5036936;28;20030;-79
2021/08/13 04:21:47;;;;;;;16.75;5.35;;;;;;;25.55;35.36;95569.66;5019736;28;20037;-79
2021/08/13 04:24:12;;;;;;;14.15;6.38;;;;;;;26.86;32.98;95569.53;5037671;28;20060;-79
2021/08/13 04:26:38;;;;;;;26.02;6.90;;;;;;;28.26;30.44;95570.56;5019553;28;20053;-80
2021/08/13 04:29:03;;;;;;;12.13;5.55;;;;;;;29.70;28.91;95573.28;5037562;28;20033;-80
2021/08/13 04:31:29;;;;;;;29.02;5.75;;;;;;;31.10;27.25;95562.00;5000829;28;20021;-80
2021/08/13 04:33:54;;;;;;;12.35;5.18;;;;;;;32.46;25.19;95572.16;5036909;28;20037;-80
2021/08/13 04:36:44;;;;;;;23.88;4.93;;;;;;;33.90;22.90;95583.28;5019875;28;20033;-79
2021/08/13 04:39:10;;;;;;;14.88;5.97;;;;;;;35.06;21.47;95577.09;5020067;28;20642;-80
2021/08/13 04:41:36;;;;;;;19.13;5.38;;;;;;;36.05;19.70;95581.84;4986297;28;20034;-80
2021/08/13 04:44:02;;;;;;;20.85;5.22;;;;;;;36.78;18.89;95587.28;5040053;23;20067;-80
2021/08/13 04:46:27;;;;;;;11.75;5.47;;;;;;;37.64;18.13;95577.44;5056845;28;20505;-80
2021/08/13 04:49:02;;;;;;;15.05;5.82;;;;;;;38.34;17.09;95584.75;5055353;28;20051;-80
2021/08/13 04:51:27;;;;;;;14.25;5.35;;;;;;;39.22;16.45;95574.72;5056532;28;20031;-80
2021/08/13 04:53:53;;;;;;;16.48;5.28;;;;;;;39.90;15.66;95571.50;5056816;28;20041;-80
2021/08/13 04:56:18;;;;;;;12.35;5.22;;;;;;;40.39;15.51;95572.19;5038662;28;20059;-80
2021/08/13 04:58:44;;;;;;;25.30;6.03;;;;;;;40.75;14.93;95580.75;5048757;28;20041;-78
2021/08/13 05:01:09;;;;;;;19.88;5.22;;;;;;;41.21;14.47;95568.47;5056001;22;20034;-77
2021/08/13 05:03:35;;;;;;;21.27;5.47;;;;;;;41.62;14.30;95569.00;5033923;28;20041;-78
2021/08/13 05:06:00;;;;;;;18.50;5.82;;;;;;;42.34;13.38;95576.03;5036414;28;20025;-79
2021/08/13 05:08:31;;;;;;;13.52;5.10;;;;;;;42.79;12.91;95573.56;5036475;28;20137;-79
2021/08/13 05:10:57;;;;;;;22.98;5.63;;;;;;;42.95;12.96;95578.34;5034649;28;20025;-79
2021/08/13 05:13:22;;;;;;;17.20;5.00;;;;;;;43.52;12.77;95577.84;5036343;28;20466;-79
2021/08/13 05:15:48;;;;;;;24.13;5.55;;;;;;;44.26;11.78;95577.19;5035181;28;20032;-79
2021/08/13 05:18:13;;;;;;;10.63;4.57;;;;;;;44.71;11.74;95585.38;5036098;28;20026;-79
2021/08/13 05:20:38;;;;;;;13.50;5.10;;;;;;;45.30;11.26;95586.84;5040690;22;20044;-79
2021/08/13 05:23:04;;;;;;;14.52;5.30;;;;;;;45.58;11.33;95589.91;5037006;28;20041;-79
2021/08/13 05:25:32;;;;;;;21.92;5.25;;;;;;;45.94;11.14;95589.53;5036182;28;20030;-79
2021/08/13 05:27:58;;;;;;;20.83;6.35;;;;;;;46.68;10.80;95577.91;5036908;28;20036;-79
2021/08/13 05:30:23;;;;;;;25.27;5.47;;;;;;;47.46;10.17;95585.97;5036066;28;20037;-79
2021/08/13 05:32:50;;;;;;;10.27;4.43;;;;;;;48.07;9.42;95581.56;5036230;28;20041;-79
2021/08/13 05:35:16;;;;;;;16.75;5.50;;;;;;;48.76;9.58;95579.41;5036252;28;20033;-80
2021/08/13 05:37:42;;;;;;;20.98;5.57;;;;;;;49.25;8.75;95576.34;4981401;28;20067;-79
2021/08/13 05:40:08;;;;;;;18.25;5.20;;;;;;;49.55;8.91;95572.53;5036869;28;20033;-79
2021/08/13 05:42:33;;;;;;;29.23;5.60;;;;;;;49.99;8.25;95576.75;5036068;28;20029;-80
2021/08/13 05:44:59;;;;;;;21.25;5.43;;;;;;;50.00;8.61;95581.06;5017859;28;20045;-79
2021/08/13 05:47:24;;;;;;;13.38;4.63;;;;;;;49.59;8.73;95584.16;5018408;28;20424;-79
2021/08/13 05:49:50;;;;;;;11.02;5.05;;;;;;;50.15;7.91;95590.94;5013708;28;20079;-80
2021/08/13 05:52:15;;;;;;;10.88;4.68;;;;;;;50.00;8.60;95594.91;5036578;28;20044;-80
2021/08/13 05:54:41;;;;;;;15.68;3.95;;;;;;;49.78;7.96;95590.38;5037522;28;20068;-79
2021/08/13 05:57:06;;;;;;;15.48;4.40;;;;;;;49.99;8.02;95594.09;5037173;28;20555;-79
2021/08/13 05:59:36;;;;;;;16.75;4.55;;;;;;;49.99;8.63;95596.88;5017481;28;20033;-79
2021/08/13 06:02:01;;;;;;;17.75;3.97;;;;;;;50.56;8.05;95591.22;5037432;28;20054;-79
2021/08/13 06:04:27;;;;;;;19.02;4.45;;;;;;;50.96;8.10;95590.69;5036763;28;20045;-80
2021/08/13 06:06:58;;;;;;;15.93;4.18;;;;;;;51.45;7.56;95597.53;5078326;22;20821;-79
2021/08/13 06:09:24;;;;;;;13.38;4.05;;;;;;;51.61;7.52;95599.00;5032985;28;20034;-79
2021/08/13 06:11:49;;;;;;;11.73;4.10;;;;;;;51.53;7.32;95598.63;5036460;28;20045;-79
2021/08/13 06:14:15;;;;;;;24.98;4.13;;;;;;;51.94;6.88;95600.72;5033290;28;20033;-80
2021/08/13 06:16:40;;;;;;;17.15;4.00;;;;;;;51.86;7.22;95598.34;5034321;28;20025;-80
2021/08/13 06:19:06;;;;;;;18.73;4.20;;;;;;;51.50;7.78;95593.28;5035647;28;20523;-80
2021/08/13 06:21:31;;;;;;;11.68;3.72;;;;;;;51.68;7.28;95598.59;5032828;28;20034;-77
2021/08/13 06:23:57;;;;;;;15.25;3.85;;;;;;;51.26;7.29;95596.97;5001568;28;20038;-80
2021/08/13 06:26:22;;;;;;;15.13;3.80;;;;;;;50.05;7.94;95589.47;5016600;28;20029;-80
2021/08/13 06:28:47;;;;;;;10.10;3.55;;;;;;;48.93;8.59;95588.84;5034358;28;20034;-79
2021/08/13 06:31:13;;;;;;;13.75;3.85;;;;;;;47.36;9.91;95589.94;5035100;28;20079;-79
2021/08/13 06:33:38;;;;;;;7.85;3.42;;;;;;;46.25;10.54;95586.91;5017548;28;20029;-80
2021/08/13 06:36:04;;;;;;;16.73;3.60;;;;;;;45.45;11.37;95587.16;5032044;28;20079;-80
2021/08/13 06:38:38;;;;;;;10.50;3.50;;;;;;;44.56;11.89;95589.72;5067668;22;20045;-79
2021/08/13 06:41:04;;;;;;;25.45;3.67;;;;;;;43.79;12.31;95587.81;5054319;28;20040;-80
2021/08/13 06:43:29;;;;;;;10.73;3.45;;;;;;;43.28;12.78;95590.13;5055566;28;20045;-79
2021/08/13 06:45:55;;;;;;;6.68;3.03;;;;;;;42.77;12.59;95595.09;5053622;28;20033;-79
2021/08/13 06:48:20;;;;;;;9.98;3.58;;;;;;;42.17;13.27;95595.06;5055450;28;20029;-79
2021/08/13 06:50:47;;;;;;;7.80;3.00;;;;;;;41.49;14.03;95589.88;5054509;28;20048;-79
2021/08/13 06:53:12;;;;;;;10.80;3.60;;;;;;;41.01;14.68;95593.69;5054195;28;20073;-79
2021/08/13 06:55:44;;;;;;;18.75;3.17;;;;;;;40.43;14.71;95592.78;5054369;28;20075;-80
2021/08/13 06:58:09;;;;;;;7.57;3.75;;;;;;;39.87;15.15;95594.84;5034918;23;20034;-79
2021/08/13 07:03:00;;;;;;;12.00;3.45;;;;;;;38.75;16.10;95610.69;5051623;22;20631;-80
2021/08/13 07:05:26;;;;;;;11.50;3.53;;;;;;;38.23;17.16;95604.94;5038204;28;20033;-80
2021/08/13 07:07:51;;;;;;;7.13;3.42;;;;;;;37.99;17.67;95601.09;5038641;28;20463;-80
2021/08/13 07:10:16;;;;;;;8.25;4.03;;;;;;;37.73;17.65;95602.25;5038985;28;20521;-79
2021/08/13 07:12:42;;;;;;;7.22;3.30;;;;;;;37.60;17.60;95598.38;5004521;28;20128;-79
2021/08/13 07:15:09;;;;;;;7.63;3.33;;;;;;;36.99;18.14;95600.94;5037981;28;20507;-79
2021/08/13 07:17:34;;;;;;;7.35;3.78;;;;;;;36.69;18.84;95598.47;5021359;28;20029;-80
2021/08/13 07:20:00;;;;;;;12.77;3.15;;;;;;;36.70;18.14;95586.47;5038490;28;20044;-79
2021/08/13 07:22:25;;;;;;;4.75;3.78;;;;;;;36.73;18.60;95593.84;5021090;28;20041;-80
2021/08/13 07:24:51;;;;;;;5.00;3.33;;;;;;;36.62;18.39;95593.03;5041439;23;20037;-80
2021/08/13 07:27:17;;;;;;;18.50;3.50;;;;;;;36.44;19.02;95592.16;5059687;23;20633;31
2021/08/13 07:29:44;;;;;;;8.45;3.38;;;;;;;35.66;19.36;95598.56;4997492;28;20047;-80
2021/08/13 07:32:09;;;;;;;15.18;4.72;;;;;;;35.58;19.98;95586.09;4998598;28;20077;-80
2021/08/13 07:34:35;;;;;;;6.65;3.28;;;;;;;35.54;18.92;95596.13;4999001;28;20054;-80
2021/08/13 07:37:01;;;;;;;5.50;3.63;;;;;;;35.45;19.19;95592.94;4997705;28;20562;-80
2021/08/13 07:39:26;;;;;;;9.73;3.47;;;;;;;35.47;20.06;95590.63;4981573;28;20030;-80
2021/08/13 07:41:51;;;;;;;5.60;3.60;;;;;;;35.44;20.25;95586.75;4997596;28;20042;-80
2021/08/13 07:44:17;;;;;;;21.73;3.78;;;;;;;35.44;20.11;95592.16;4997511;28;20112;-80
2021/08/13 07:46:42;;;;;;;8.45;3.67;;;;;;;35.36;19.71;95587.09;4998978;28;20038;-80
2021/08/13 07:49:08;;;;;;;8.75;4.25;;;;;;;35.32;19.94;95581.63;4998656;28;20411;-80
2021/08/13 07:51:33;;;;;;;7.43;4.53;;;;;;;35.19;20.50;95585.72;4981091;28;20038;-80
2021/08/13 07:53:59;;;;;;;8.77;3.70;;;;;;;34.84;20.70;95580.69;4997390;28;20042;-80
2021/08/13 07:56:24;;;;;;;9.13;4.10;;;;;;;34.71;20.36;95598.31;4997372;28;20053;-80
2021/08/13 07:58:50;;;;;;;13.32;3.78;;;;;;;34.66;20.59;95590.50;4981191;28;20039;-79
2021/08/13 08:01:15;;;;;;;3.35;3.10;;;;;;;34.63;19.03;95591.25;4996817;28;20031;-80
2021/08/13 08:03:41;;;;;;;4.63;3.42;;;;;;;34.59;20.26;95588.50;4981581;28;20022;-80
2021/08/13 08:06:06;;;;;;;5.82;3.28;;;;;;;34.56;20.84;95603.53;4995494;28;20045;-80
2021/08/13 08:08:32;;;;;;;14.95;4.05;;;;;;;34.40;20.33;95600.22;4997387;28;20080;-80
2021/08/13 08:10:57;;;;;;;10.75;3.30;;;;;;;34.26;20.65;95605.41;4996867;28;20432;-80
2021/08/13 08:13:23;;;;;;;6.57;3.55;;;;;;;34.23;20.94;95600.72;4996931;28;20027;-80
2021/08/13 08:15:52;;;;;;;8.80;3.65;;;;;;;33.95;21.43;95612.66;4981045;28;20050;-80
2021/08/13 08:18:20;;;;;;;11.40;3.65;;;;;;;33.63;21.18;95616.72;4997101;28;20085;-79
2021/08/13 08:20:46;;;;;;;8.30;3.47;;;;;;;33.03;21.76;95600.22;4996811;28;20494;-80
2021/08/13 08:23:11;;;;;;;4.15;3.50;;;;;;;32.61;21.42;95606.31;4996651;28;20092;-79
2021/08/13 08:25:37;;;;;;;10.05;3.65;;;;;;;32.00;23.00;95609.56;4998124;28;20034;-79
2021/08/13 08:28:03;;;;;;;9.55;3.75;;;;;;;31.73;23.45;95610.44;4965067;28;20039;-79
2021/08/13 08:30:29;;;;;;;5.43;3.45;;;;;;;31.98;24.09;95601.06;4996580;28;20042;-79
2021/08/13 08:32:54;;;;;;;8.60;3.45;;;;;;;32.24;23.36;95597.81;4997672;28;20516;-80
2021/08/13 08:35:20;;;;;;;10.02;3.83;;;;;;;32.18;23.11;95605.38;4997756;28;20069;-79
2021/08/13 08:37:58;;;;;;;9.88;3.42;;;;;;;32.27;23.52;95597.16;4963743;28;20415;-80
2021/08/13 08:40:26;;;;;;;5.22;3.40;;;;;;;32.37;23.39;95590.41;4980929;28;20034;-80
2021/08/13 08:42:56;;;;;;;8.00;3.67;;;;;;;32.07;22.87;95585.53;4980710;28;20031;-80
2021/08/13 08:45:30;;;;;;;5.95;3.15;;;;;;;32.00;22.85;95588.03;4998018;28;20124;-80
2021/08/13 08:47:57;;;;;;;11.40;3.80;;;;;;;32.03;22.79;95592.72;4996615;28;20038;-80
2021/08/13 08:50:23;;;;;;;8.60;4.18;;;;;;;32.11;22.72;95589.06;4996563;28;20045;-80
2021/08/13 08:52:49;;;;;;;12.20;3.67;;;;;;;32.18;22.71;95589.22;4996237;28;20506;-80
2021/08/13 08:55:14;;;;;;;5.45;3.38;;;;;;;32.28;22.54;95584.47;4997180;28;20161;-79
2021/08/13 08:57:40;;;;;;;8.85;3.65;;;;;;;32.20;22.97;95592.34;4964117;28;20031;-81
2021/08/13 09:00:07;;;;;;;6.32;3.78;;;;;;;31.86;23.23;95588.50;4964677;28;20035;-78
2021/08/13 09:02:58;;;;;;;6.45;4.00;;;;;;;31.89;23.24;95600.47;4997811;28;20035;-79
2021/08/13 09:05:23;;;;;;;9.68;4.03;;;;;;;31.95;22.54;95596.41;4997635;28;20034;-81
2021/08/13 09:07:49;;;;;;;8.38;3.72;;;;;;;32.06;22.72;95592.06;4980526;28;20034;-80
2021/08/13 09:10:14;;;;;;;9.15;4.00;;;;;;;32.10;22.83;95581.34;4998422;28;20045;-80
2021/08/13 09:12:40;;;;;;;9.65;3.75;;;;;;;32.10;23.16;95592.13;5000947;28;20034;-78
2021/08/13 09:15:31;;;;;;;13.07;3.72;;;;;;;32.11;22.64;95589.06;5003867;28;20421;-78
2021/08/13 09:18:13;;;;;;;6.90;3.40;;;;;;;32.13;22.59;95583.34;4998842;28;20038;-80
2021/08/13 09:20:49;;;;;;;5.25;3.90;;;;;;;32.19;22.63;95592.69;4996614;28;20066;-80
2021/08/13 09:23:30;;;;;;;6.95;3.88;;;;;;;32.07;22.79;95588.22;4994082;28;20034;-79
2021/08/13 09:26:03;;;;;;;8.40;3.72;;;;;;;32.02;22.42;95585.78;5126922;22;20023;-78
2021/08/13 09:28:55;;;;;;;4.57;3.38;;;;;;;32.01;22.73;95584.22;5012149;28;20026;-79
2021/08/13 09:31:34;;;;;;;5.00;3.33;;;;;;;32.03;22.88;95581.97;4977898;28;20053;-80
2021/08/13 09:34:09;;;;;;;6.60;4.28;;;;;;;32.02;22.47;95579.63;5016057;28;20057;-79
2021/08/13 09:36:41;;;;;;;4.35;3.95;;;;;;;31.92;22.07;95579.06;4963876;28;20045;-80
2021/08/13 09:39:10;;;;;;;11.38;3.55;;;;;;;31.97;22.96;95578.00;5016303;28;20048;-79
2021/08/13 09:41:38;;;;;;;7.00;3.80;;;;;;;32.04;22.73;95583.53;4996689;28;20037;-77
2021/08/13 09:44:31;;;;;;;10.73;3.53;;;;;;;31.95;23.03;95582.94;5029798;28;20045;-78
2021/08/13 09:47:01;;;;;;;7.35;3.83;;;;;;;31.67;23.23;95591.88;5008444;28;20152;-78
2021/08/13 09:49:27;;;;;;;8.60;3.78;;;;;;;31.36;24.17;95586.50;5013858;28;20041;-79
2021/08/13 09:51:52;;;;;;;6.90;4.07;;;;;;;31.23;24.14;95582.31;5014571;28;20096;-79
2021/08/13 09:54:18;;;;;;;8.90;4.15;;;;;;;31.14;24.31;95584.34;4998788;28;20484;-80
2021/08/13 09:56:44;;;;;;;6.05;4.25;;;;;;;30.78;24.73;95578.03;5014819;28;20034;-79
2021/08/13 09:59:14;;;;;;;16.38;3.88;;;;;;;30.47;25.03;95576.78;4998933;28;20037;-80
2021/08/13 10:01:44;;;;;;;9.10;4.20;;;;;;;30.56;25.56;95581.22;5012047;28;20041;-80
2021/08/13 10:04:09;;;;;;;8.00;3.65;;;;;;;30.57;25.43;95577.41;5016614;28;20510;-80
2021/08/13 10:06:36;;;;;;;11.40;4.13;;;;;;;30.48;25.26;95581.03;5015018;28;20033;-80
2021/08/13 10:09:02;;;;;;;9.48;4.00;;;;;;;30.52;25.15;95577.66;4998263;28;20121;-80
2021/08/13 10:11:28;;;;;;;6.88;3.67;;;;;;;30.64;25.22;95575.75;4998332;28;20033;-80
2021/08/13 10:13:54;;;;;;;5.85;3.92;;;;;;;30.75;25.07;95573.34;5014078;28;20164;-80
2021/08/13 10:16:24;;;;;;;7.57;4.18;;;;;;;30.84;25.08;95571.28;5014719;28;20033;-80
2021/08/13 10:18:49;;;;;;;6.38;4.03;;;;;;;30.94;25.70;95565.44;5015717;28;20045;-80
2021/08/13 10:21:15;;;;;;;7.68;4.03;;;;;;;30.99;24.52;95573.25;5015788;28;20034;-80
2021/08/13 10:23:41;;;;;;;8.63;4.60;;;;;;;31.09;24.78;95565.81;5016034;28;20041;-79
2021/08/13 10:26:06;;;;;;;5.07;4.03;;;;;;;31.20;24.35;95572.25;5015055;28;20498;-80
2021/08/13 10:28:32;;;;;;;6.50;3.88;;;;;;;31.26;24.82;95577.03;5012126;28;20136;-80
2021/08/13 10:30:57;;;;;;;4.78;4.28;;;;;;;30.64;25.37;95572.28;5013502;28;20030;-80
2021/08/13 10:33:22;;;;;;;8.80;4.22;;;;;;;30.51;25.70;95568.81;5037330;23;20040;-80
2021/08/13 10:35:56;;;;;;;4.50;3.60;;;;;;;30.51;25.95;95573.41;5037885;28;20551;-80
2021/08/13 10:38:22;;;;;;;5.10;4.30;;;;;;;30.50;25.83;95582.59;5020845;28;20079;-80
2021/08/13 10:40:48;;;;;;;7.15;4.20;;;;;;;30.59;25.82;95572.47;5021129;28;20037;-80
2021/08/13 10:43:13;;;;;;;4.65;4.22;;;;;;;30.34;26.61;95575.25;5052909;28;20069;-80
2021/08/13 10:45:39;;;;;;;9.55;4.68;;;;;;;30.28;26.35;95570.47;5037817;28;20037;-80
2021/08/13 10:48:25;;;;;;;8.10;4.63;;;;;;;30.20;27.07;95574.81;5053982;28;20512;-80
2021/08/13 10:50:56;;;;;;;7.88;4.82;;;;;;;30.12;26.35;95571.16;5054559;28;20111;-80
2021/08/13 10:53:34;;;;;;;14.57;5.10;;;;;;;30.13;26.93;95563.91;5055417;28;20041;-80
2021/08/13 10:56:04;;;;;;;9.93;4.60;;;;;;;30.25;26.67;95565.75;5055117;28;20037;-80
2021/08/13 10:58:41;;;;;;;5.10;4.57;;;;;;;30.33;26.43;95552.22;5021303;28;20083;-80
2021/08/13 11:01:08;;;;;;;8.18;4.30;;;;;;;30.42;26.63;95550.16;5054927;28;20091;-80
2021/08/13 11:03:35;;;;;;;10.75;4.70;;;;;;;30.56;26.37;95554.38;5053947;28;20036;-80
2021/08/13 11:06:00;;;;;;;12.07;4.45;;;;;;;30.69;26.19;95555.91;5035470;28;20650;-78
2021/08/13 11:08:41;;;;;;;6.20;4.50;;;;;;;30.02;27.23;95546.66;5036669;28;20025;-78
2021/08/13 11:11:13;;;;;;;10.45;4.50;;;;;;;30.05;26.79;95537.97;5054772;28;20060;-78
2021/08/13 11:13:40;;;;;;;8.68;4.70;;;;;;;30.12;26.88;95538.19;5037092;28;20036;-78
2021/08/13 11:16:24;;;;;;;14.13;5.05;;;;;;;30.22;26.97;95545.75;5037171;28;20071;-78
2021/08/13 11:19:00;;;;;;;12.27;4.45;;;;;;;30.29;26.68;95542.50;5054568;28;20079;-79
2021/08/13 11:21:39;;;;;;;9.00;4.57;;;;;;;30.39;26.70;95529.38;5036945;28;20065;-78
2021/08/13 11:24:07;;;;;;;4.97;4.43;;;;;;;30.54;26.85;95532.47;5055072;28;20051;-78
2021/08/13 11:26:49;;;;;;;4.88;4.10;;;;;;;30.47;26.11;95531.16;5020614;28;20114;-78
2021/08/13 11:29:30;;;;;;;5.75;3.90;;;;;;;30.39;26.70;95529.38;5054460;28;20041;-78
2021/08/13 11:32:07;;;;;;;11.35;4.60;;;;;;;30.51;26.81;95522.41;5054086;28;20040;-78
2021/08/13 11:34:49;;;;;;;4.40;3.75;;;;;;;30.34;27.02;95521.56;5053699;28;20040;-78
2021/08/13 11:37:29;;;;;;;11.43;4.43;;;;;;;30.24;27.40;95516.69;5051748;28;20053;-78
2021/08/13 11:40:01;;;;;;;9.35;4.28;;;;;;;30.21;27.58;95524.63;5054649;28;20155;-78